hwlogo.jpg (8581 bytes)
Home Your Weather Products Services Weather On Your Site Contact
HW Version Logo
Weather Info
Your Weather (Options)
Canadian Weather
International Weather
Enter your " Place, State", US Zip Code or ICAO:  
Forecast Information Radar Information
Cranbrook, British Columbia, Canada  Lat: 49.60N, Lon: 115.77W
ICAO Used: CYXC
Current Conditions
Updated: 6:00 AM MST MON FEB 19 2018
Sun & Moon Information
Partly Cloudy
Partly Cloudy
Temp: -22°C
Humidity: 83%
Wind Speed: VRB2 MPH
Barometer: 1017 mb
Dewpoint: -24°C
Heat Index: -22°C
Wind Chill: -24°C
Civil Twilight: 7:15 AM MST Moon Phase:
Waxing Crescent Moon
Sunrise: 7:48 AM MST
Sunset: 6:05 PM MST
Civil Twilight: 6:38 PM MST
Forecast for Cranbrook, BC:
(Forecast based on TAF for )
0639 AM MST MON FEB 19 2018
  
MORNING AFTERNOON EVENING OVERNIGHT
Partly
Cloudy
Partly
Cloudy
Partly
Cloudy
Partly
Cloudy
ZoneCast:
Dated: 0639 AM MST MON FEB 19 2018
Morning...Mostly cloudy winds variable in direction at 3 mph. Turning partly cloudy winds variable in direction at 3 mph.

Afternoon...Partly cloudy winds variable in direction at 3 mph.

Evening...Partly cloudy winds variable in direction at 3 mph.

Overnight...Partly cloudy winds variable in direction at 3 mph.

Original Encoded TAF:
Dated: 0639 AM MST MON FEB 19 2018
2018/02/19 13:39
TAF CYXC 191238Z 1913/2001 VRB03KT P6SM FEW030 SCT120 BKN200 
     FM191800 VRB03KT P6SM FEW100 
      RMK NXT FCST BY 191900Z